EDT,Max TemperatureF,Mean TemperatureF,Min TemperatureF,Max Dew PointF,MeanDew PointF,Min DewpointF,Max Humidity, Mean Humidity, Min Humidity, Max Sea Level PressureIn, Mean Sea Level PressureIn, Min Sea Level PressureIn, Max VisibilityMiles, Mean VisibilityMiles, Min VisibilityMiles, Max Wind SpeedMPH, Mean Wind SpeedMPH, Max Gust SpeedMPH,PrecipitationIn, CloudCover, Events, WindDirDegrees
2013-3-1,30,28,25,27,22,19,86,77,69,30.10,30.02,29.95,10,10,10,22,15,31,0.00,8,Snow,347
2013-3-2,30,26,23,21,19,16,84,75,64,30.09,30.06,30.01,10,10,10,17,11,22,0.00,8,Snow,332
2013-3-3,26,23,19,18,15,13,86,71,58,30.07,30.04,30.01,10,10,10,16,9,22,0.00,7,Snow,317
2013-3-4,33,24,15,19,15,12,88,70,41,30.16,30.13,30.08,12,12,10,10,3,,0.00,1,,331
2013-3-5,35,27,19,25,21,18,91,78,60,30.17,30.02,29.87,12,12,10,14,5,,0.00,4,,48
2013-3-6,41,34,26,30,28,24,93,76,65,30.22,30.09,29.86,12,10,7,13,9,22,0.00,5,,5
2013-3-7,35,30,26,34,29,19,100,87,70,30.42,30.30,30.22,12,8,1,14,4,,0.02,7,Rain-Snow,331
2013-3-8,42,32,23,30,25,18,99,76,61,30.51,30.47,30.42,10,10,10,9,4,,0.00,0,,344
2013-3-9,41,32,23,34,28,23,100,94,65,30.46,30.36,30.09,10,4,0,15,2,20,0.01,2,Fog-Rain,136
2013-3-10,60,48,35,45,37,32,91,72,48,30.07,29.95,29.83,12,10,7,23,8,29,0.00,7,,173
2013-3-11,50,46,39,48,43,32,100,89,72,29.83,29.67,29.47,12,10,2,22,13,31,0.31,8,Rain,188
2013-3-12,38,35,31,32,29,24,87,78,65,29.93,29.83,29.70,12,8,2,17,13,22,0.01,8,Snow,246
2013-3-13,32,29,26,30,24,12,100,79,44,30.18,29.93,29.83,12,8,0,22,9,29,0.05,7,Snow,250
2013-3-14,39,31,23,25,16,12,86,58,36,30.26,30.19,30.09,12,11,10,13,9,17,0.00,1,,283
2013-3-15,40,36,30,34,28,19,93,77,55,30.07,29.92,29.84,10,7,3,15,9,22,0.06,8,Rain-Snow,288
2013-3-16,31,29,26,28,26,23,100,88,69,30.06,29.87,29.76,10,4,0,15,10,,0.01,8,Snow,46
2013-3-17,29,26,21,24,17,12,89,69,55,30.31,30.20,30.05,12,12,10,16,9,,0.00,5,Snow,357
2013-3-18,36,29,23,36,27,15,100,86,69,30.22,29.79,29.53,12,7,1,23,15,30,0.10,7,Rain-Snow,105
2013-3-19,35,30,24,32,22,14,93,74,59,29.94,29.73,29.62,12,7,2,26,14,31,0.01,8,Rain-Snow,249
2013-3-20,30,26,19,17,13,10,70,61,51,29.95,29.91,29.85,12,11,10,17,12,24,0.00,5,Snow,275
2013-3-21,32,24,17,25,19,10,86,72,64,29.93,29.85,29.80,12,9,2,18,11,25,0.00,7,Snow,282
2013-3-22,37,32,26,23,19,16,80,66,52,30.04,29.95,29.90,10,10,10,16,12,22,0.00,8,Snow,298
2013-3-23,39,32,26,25,23,21,86,69,52,30.12,30.08,30.00,12,10,10,9,4,,0.00,6,,335
2013-3-24,37,30,22,28,23,18,93,77,52,30.06,29.89,29.68,12,10,10,20,7,23,0.00,6,,37
2013-3-25,39,36,32,28,25,23,77,70,56,29.90,29.66,29.56,12,10,5,18,15,28,0.00,7,Snow,20
2013-3-26,45,38,33,30,28,26,81,67,53,30.10,30.01,29.91,12,12,10,16,11,,0.00,8,,314
2013-3-27,46,38,30,27,25,23,75,58,40,30.19,30.14,30.10,12,11,10,17,12,24,0.00,6,,298
2013-3-28,49,40,33,32,27,23,82,61,40,30.27,30.24,30.19,12,11,10,10,8,,0.00,6,,290
2013-3-29,51,40,30,29,24,19,74,54,30,30.29,30.26,30.21,10,10,7,12,6,,0.00,1,,292
2013-3-30,53,38,26,34,25,19,87,68,28,30.23,30.17,29.96,12,9,4,16,3,,0.00,2,Fog,183
2013-3-31,58,46,35,43,36,30,87,72,36,29.94,29.71,29.62,12,9,5,15,7,22,0.01,7,Rain,266